createdAt,value
2023-05-19T00:00:27.693Z,5.65
2023-05-19T00:01:27.748Z,6.10
2023-05-19T00:02:27.842Z,6.00
2023-05-19T00:03:27.858Z,5.89
2023-05-19T00:04:27.874Z,5.60
2023-05-19T00:05:27.979Z,5.74
2023-05-19T00:06:28.005Z,5.53
2023-05-19T00:07:28.048Z,5.83
2023-05-19T00:08:28.095Z,5.46
2023-05-19T00:09:28.130Z,5.75
2023-05-19T00:10:28.182Z,5.82
2023-05-19T00:11:28.219Z,5.86
2023-05-19T00:12:28.297Z,5.69
2023-05-19T00:13:28.325Z,5.78
2023-05-19T00:14:28.376Z,6.03
2023-05-19T00:15:28.420Z,5.97
2023-05-19T00:16:28.547Z,6.26
2023-05-19T00:17:28.543Z,6.66
2023-05-19T00:18:28.557Z,6.12
2023-05-19T00:19:28.678Z,6.61
2023-05-19T00:20:28.670Z,6.95
2023-05-19T00:21:28.708Z,6.57
2023-05-19T00:22:28.733Z,6.78
2023-05-19T00:23:28.759Z,6.23
2023-05-19T00:24:28.833Z,6.22
2023-05-19T00:25:28.857Z,6.10
2023-05-19T00:26:28.902Z,6.77
2023-05-19T00:27:28.974Z,6.74
2023-05-19T00:28:28.998Z,7.10
2023-05-19T00:29:29.041Z,6.62
2023-05-19T00:30:29.178Z,7.23
2023-05-19T00:31:29.161Z,6.63
2023-05-19T00:32:29.243Z,6.80
2023-05-19T00:33:29.223Z,6.49
2023-05-19T00:34:29.265Z,6.45
2023-05-19T00:35:29.290Z,6.70
2023-05-19T00:36:29.332Z,6.91
2023-05-19T00:37:29.409Z,6.66
2023-05-19T00:38:29.418Z,6.38
2023-05-19T00:39:29.447Z,6.40
2023-05-19T00:40:29.579Z,7.30
2023-05-19T00:41:29.544Z,6.67
2023-05-19T00:42:29.526Z,7.08
2023-05-19T00:43:29.578Z,7.40
2023-05-19T00:44:29.614Z,6.99
2023-05-19T00:45:29.647Z,7.25
2023-05-19T00:46:29.718Z,7.94
2023-05-19T00:47:29.856Z,6.99
2023-05-19T00:48:29.767Z,6.53
2023-05-19T00:49:29.779Z,7.40
2023-05-19T00:50:30.136Z,6.68
2023-05-19T00:51:29.848Z,7.27
2023-05-19T00:52:29.911Z,7.91
2023-05-19T00:53:29.964Z,8.12
2023-05-19T00:54:30.000Z,7.58
2023-05-19T00:55:30.065Z,8.05
2023-05-19T00:56:30.114Z,7.86
2023-05-19T00:57:30.151Z,8.45
2023-05-19T00:58:30.222Z,8.50
2023-05-19T00:59:30.236Z,8.50
2023-05-19T01:00:30.481Z,7.90
2023-05-19T01:01:30.364Z,8.31
2023-05-19T01:02:30.449Z,8.16
2023-05-19T01:03:30.507Z,7.96
2023-05-19T01:04:30.413Z,8.10
2023-05-19T01:05:30.449Z,8.15
2023-05-19T01:06:30.497Z,8.12
2023-05-19T01:07:30.541Z,7.60
2023-05-19T01:08:30.572Z,8.02
2023-05-19T01:09:30.610Z,8.19
2023-05-19T01:10:30.852Z,8.54
2023-05-19T01:11:30.713Z,8.20
2023-05-19T01:12:30.730Z,7.77
2023-05-19T01:13:30.772Z,7.51
2023-05-19T01:14:30.795Z,7.09
2023-05-19T01:15:30.865Z,7.96
2023-05-19T01:16:31.002Z,8.08
2023-05-19T01:17:30.931Z,7.70
2023-05-19T01:18:30.947Z,8.69
2023-05-19T01:19:30.973Z,8.09
2023-05-19T01:20:31.240Z,8.39
2023-05-19T01:21:31.063Z,8.30
2023-05-19T01:22:31.093Z,8.57
2023-05-19T01:23:31.137Z,8.22
2023-05-19T01:24:31.148Z,8.27
2023-05-19T01:25:31.216Z,8.55
2023-05-19T01:26:31.271Z,8.41
2023-05-19T01:27:31.303Z,8.95
2023-05-19T01:28:31.344Z,8.18
2023-05-19T01:29:31.378Z,8.27
2023-05-19T01:30:31.571Z,8.48
2023-05-19T01:31:31.523Z,8.79
2023-05-19T01:32:31.507Z,8.54
2023-05-19T01:33:31.553Z,8.53
2023-05-19T01:34:31.580Z,8.49
2023-05-19T01:35:31.614Z,7.82
2023-05-19T01:36:31.646Z,8.28
2023-05-19T01:37:31.675Z,8.57
2023-05-19T01:38:31.705Z,8.80
2023-05-19T01:39:31.745Z,8.36
2023-05-19T01:40:32.024Z,7.94
2023-05-19T01:41:31.819Z,8.14
2023-05-19T01:42:31.851Z,8.07
2023-05-19T01:43:31.905Z,8.41
2023-05-19T01:44:31.947Z,8.57
2023-05-19T01:45:32.015Z,8.11
2023-05-19T01:46:32.132Z,8.02
2023-05-19T01:47:32.079Z,8.28
2023-05-19T01:48:32.095Z,7.84
2023-05-19T01:49:32.151Z,7.83
2023-05-19T01:50:32.426Z,8.69
2023-05-19T01:51:32.236Z,8.36
2023-05-19T01:52:32.271Z,7.92
2023-05-19T01:53:32.295Z,8.38
2023-05-19T01:54:32.357Z,8.88
2023-05-19T01:55:32.412Z,9.54
2023-05-19T01:56:32.471Z,9.57
2023-05-19T01:57:32.495Z,9.63
2023-05-19T01:58:32.488Z,9.49
2023-05-19T01:59:32.498Z,9.16
2023-05-19T02:00:32.609Z,9.29
2023-05-19T02:01:32.567Z,8.90
2023-05-19T02:02:32.571Z,8.63
2023-05-19T02:03:32.576Z,8.62
2023-05-19T02:04:32.682Z,8.68
2023-05-19T02:05:32.650Z,8.67
2023-05-19T02:06:32.680Z,8.54
2023-05-19T02:07:32.747Z,8.45
2023-05-19T02:08:32.761Z,8.33
2023-05-19T02:09:32.771Z,8.26
2023-05-19T02:10:33.016Z,8.45
2023-05-19T02:11:32.840Z,8.46
2023-05-19T02:12:32.863Z,8.72
2023-05-19T02:13:32.916Z,8.81
2023-05-19T02:14:32.930Z,8.42
2023-05-19T02:15:32.993Z,8.65
2023-05-19T02:16:33.027Z,8.64
2023-05-19T02:17:33.112Z,8.31
2023-05-19T02:18:33.084Z,8.37
2023-05-19T02:19:33.110Z,8.65
2023-05-19T02:20:33.396Z,8.54
2023-05-19T02:21:33.163Z,8.69
2023-05-19T02:22:33.171Z,8.58
2023-05-19T02:23:33.213Z,8.23
2023-05-19T02:24:33.250Z,8.18
2023-05-19T02:25:33.255Z,8.17
2023-05-19T02:26:33.314Z,8.17
2023-05-19T02:27:33.310Z,8.43
2023-05-19T02:28:33.367Z,8.66
2023-05-19T02:29:33.385Z,8.59
2023-05-19T02:30:33.578Z,8.46
2023-05-19T02:31:33.480Z,8.55
2023-05-19T02:32:33.579Z,8.65
2023-05-19T02:33:33.511Z,8.04
2023-05-19T02:34:33.529Z,8.20
2023-05-19T02:35:33.595Z,8.38
2023-05-19T02:36:33.623Z,8.62
2023-05-19T02:37:33.630Z,8.33
2023-05-19T02:38:33.664Z,8.41
2023-05-19T02:39:33.690Z,8.63
2023-05-19T02:40:33.944Z,8.53
2023-05-19T02:41:33.772Z,8.16
2023-05-19T02:42:33.811Z,8.58
2023-05-19T02:43:33.854Z,8.13
2023-05-19T02:44:33.894Z,8.33
2023-05-19T02:45:33.973Z,8.37
2023-05-19T02:46:34.074Z,8.56
2023-05-19T02:47:36.769Z,8.21
2023-05-19T02:48:33.979Z,8.45
2023-05-19T02:49:33.972Z,8.37
2023-05-19T02:50:34.089Z,7.95
2023-05-19T02:51:33.965Z,7.92
2023-05-19T02:52:33.981Z,8.33
2023-05-19T02:53:33.965Z,8.39
2023-05-19T02:54:33.944Z,8.41
2023-05-19T02:55:33.944Z,8.21
2023-05-19T02:56:33.923Z,8.27
2023-05-19T02:57:33.910Z,8.14
2023-05-19T02:58:33.915Z,8.06
2023-05-19T02:59:33.912Z,8.19
2023-05-19T03:00:34.060Z,8.03
2023-05-19T03:01:33.942Z,8.10
2023-05-19T03:02:33.946Z,8.16
2023-05-19T03:03:33.894Z,8.18
2023-05-19T03:04:33.857Z,8.16
2023-05-19T03:05:33.876Z,8.06
2023-05-19T03:06:33.866Z,8.26
2023-05-19T03:07:33.859Z,8.23
2023-05-19T03:08:33.852Z,8.21
2023-05-19T03:09:33.824Z,8.61
2023-05-19T03:10:33.992Z,8.47
2023-05-19T03:11:33.824Z,8.33
2023-05-19T03:12:33.821Z,8.26
2023-05-19T03:13:33.793Z,8.25
2023-05-19T03:14:33.790Z,8.49
2023-05-19T03:15:33.797Z,8.53
2023-05-19T03:16:33.887Z,8.21
2023-05-19T03:17:33.943Z,8.47
2023-05-19T03:18:33.773Z,8.33
2023-05-19T03:19:33.763Z,8.24
2023-05-19T03:20:33.990Z,8.38
2023-05-19T03:21:33.747Z,8.38
2023-05-19T03:22:33.749Z,8.52
2023-05-19T03:23:33.736Z,8.13
2023-05-19T03:24:33.736Z,8.25
2023-05-19T03:25:33.714Z,8.40
2023-05-19T03:26:33.705Z,8.36
2023-05-19T03:27:33.711Z,8.53
2023-05-19T03:28:33.699Z,8.50
2023-05-19T03:29:33.696Z,8.23
2023-05-19T03:30:33.821Z,8.57
2023-05-19T03:31:33.669Z,8.57
2023-05-19T03:32:33.720Z,8.50
2023-05-19T03:33:33.703Z,8.25
2023-05-19T03:34:33.648Z,8.49
2023-05-19T03:35:33.636Z,8.44
2023-05-19T03:36:33.652Z,8.52
2023-05-19T03:37:33.630Z,8.44
2023-05-19T03:38:33.635Z,8.47
2023-05-19T03:39:33.626Z,8.48
2023-05-19T03:40:33.820Z,8.57
2023-05-19T03:41:33.655Z,8.56
2023-05-19T03:42:33.807Z,8.35
2023-05-19T03:43:33.702Z,8.34
2023-05-19T03:44:33.731Z,8.45
2023-05-19T03:45:33.831Z,8.35
2023-05-19T03:46:33.810Z,8.30
2023-05-19T03:47:33.856Z,8.66
2023-05-19T03:48:33.871Z,8.54
2023-05-19T03:49:33.890Z,8.60
2023-05-19T03:50:34.134Z,8.37
2023-05-19T03:51:33.938Z,8.31
2023-05-19T03:52:33.966Z,8.46
2023-05-19T03:53:34.007Z,8.53
2023-05-19T03:54:34.045Z,8.42
2023-05-19T03:55:34.103Z,7.97
2023-05-19T03:56:34.185Z,8.08
2023-05-19T03:57:34.227Z,8.27
2023-05-19T03:58:34.247Z,8.23
2023-05-19T03:59:34.303Z,8.06
2023-05-19T04:00:34.854Z,8.03
2023-05-19T04:01:34.367Z,8.34
2023-05-19T04:02:34.496Z,8.45
2023-05-19T04:03:34.508Z,8.39
2023-05-19T04:04:34.563Z,8.46
2023-05-19T04:05:34.572Z,8.56
2023-05-19T04:06:34.574Z,8.50
2023-05-19T04:07:34.643Z,8.73
2023-05-19T04:08:34.684Z,8.45
2023-05-19T04:09:34.711Z,8.62
2023-05-19T04:10:34.777Z,8.34
2023-05-19T04:11:34.773Z,8.45
2023-05-19T04:12:34.825Z,8.38
2023-05-19T04:13:34.819Z,8.60
2023-05-19T04:14:34.873Z,8.39
2023-05-19T04:15:34.981Z,8.38
2023-05-19T04:16:34.945Z,8.22
2023-05-19T04:17:35.141Z,8.27
2023-05-19T04:18:35.013Z,8.42
2023-05-19T04:19:35.080Z,8.47
2023-05-19T04:20:35.121Z,8.44
2023-05-19T04:21:35.248Z,8.31
2023-05-19T04:22:35.240Z,8.17
2023-05-19T04:23:35.247Z,8.29
2023-05-19T04:24:35.298Z,8.27
2023-05-19T04:25:35.342Z,8.28
2023-05-19T04:26:35.395Z,8.35
2023-05-19T04:27:35.414Z,8.65
2023-05-19T04:28:35.441Z,8.70
2023-05-19T04:29:35.528Z,8.75
2023-05-19T04:30:35.635Z,8.50
2023-05-19T04:31:35.678Z,8.37
2023-05-19T04:32:35.679Z,8.18
2023-05-19T04:33:35.716Z,8.42
2023-05-19T04:34:35.761Z,8.51
2023-05-19T04:35:35.812Z,8.36
2023-05-19T04:36:35.941Z,8.12
2023-05-19T04:37:35.922Z,8.25
2023-05-19T04:38:36.002Z,8.31
2023-05-19T04:39:36.041Z,8.28
2023-05-19T04:40:36.115Z,8.33
2023-05-19T04:41:36.167Z,8.26
2023-05-19T04:42:36.219Z,8.02
2023-05-19T04:43:36.311Z,8.14
2023-05-19T04:44:36.359Z,7.96
2023-05-19T04:45:36.427Z,7.97
2023-05-19T04:46:36.514Z,7.86
2023-05-19T04:47:36.574Z,7.82
2023-05-19T04:48:36.591Z,7.96
2023-05-19T04:49:36.660Z,7.86
2023-05-19T04:50:36.700Z,8.00
2023-05-19T04:51:36.857Z,7.95
2023-05-19T04:52:36.802Z,8.06
2023-05-19T04:53:36.855Z,8.02
2023-05-19T04:54:36.875Z,7.79
2023-05-19T04:55:36.928Z,7.84
2023-05-19T04:56:36.960Z,7.87
2023-05-19T04:57:36.988Z,7.56
2023-05-19T04:58:37.003Z,7.95
2023-05-19T04:59:37.052Z,7.73
2023-05-19T05:00:37.104Z,7.22
2023-05-19T05:01:37.139Z,7.41
2023-05-19T05:02:37.257Z,7.89
2023-05-19T05:03:37.336Z,7.78
2023-05-19T05:04:37.211Z,7.40
2023-05-19T05:05:37.227Z,7.76
2023-05-19T05:06:37.256Z,7.74
2023-05-19T05:07:37.292Z,8.10
2023-05-19T05:08:37.372Z,8.19
2023-05-19T05:09:37.380Z,7.85
2023-05-19T05:10:37.412Z,7.99
2023-05-19T05:11:37.467Z,8.06
2023-05-19T05:12:37.656Z,7.49
2023-05-19T05:13:37.575Z,7.23
2023-05-19T05:14:37.683Z,7.42
2023-05-19T05:15:37.653Z,7.46
2023-05-19T05:16:37.772Z,7.31
2023-05-19T05:17:37.873Z,7.29
2023-05-19T05:18:37.921Z,7.69
2023-05-19T05:19:37.849Z,7.92
2023-05-19T05:20:37.912Z,7.42
2023-05-19T05:21:37.960Z,7.51
2023-05-19T05:22:37.988Z,7.44
2023-05-19T05:23:38.056Z,7.47
2023-05-19T05:24:38.101Z,7.76
2023-05-19T05:25:38.157Z,6.84
2023-05-19T05:26:38.217Z,7.12
2023-05-19T05:27:38.307Z,7.48
2023-05-19T05:28:38.322Z,7.36
2023-05-19T05:29:38.396Z,7.09
2023-05-19T05:30:38.445Z,7.12
2023-05-19T05:31:38.484Z,7.03
2023-05-19T05:32:38.696Z,6.91
2023-05-19T05:33:38.715Z,6.82
2023-05-19T05:34:38.745Z,7.02
2023-05-19T05:35:38.693Z,6.75
2023-05-19T05:36:38.751Z,6.21
2023-05-19T05:37:38.796Z,6.27
2023-05-19T05:38:38.836Z,6.21
2023-05-19T05:39:38.880Z,5.99
2023-05-19T05:40:38.909Z,5.62
2023-05-19T05:41:38.968Z,5.53
2023-05-19T05:42:38.978Z,4.74
2023-05-19T05:43:39.028Z,4.86
2023-05-19T05:44:39.056Z,4.92
2023-05-19T05:45:39.135Z,5.74
2023-05-19T05:46:39.184Z,4.62
2023-05-19T05:47:39.241Z,4.41
2023-05-19T05:48:39.237Z,4.37
2023-05-19T05:49:39.268Z,4.67
2023-05-19T05:50:39.336Z,4.42
2023-05-19T05:51:39.352Z,4.20
2023-05-19T05:52:39.399Z,3.92
2023-05-19T05:53:39.471Z,3.57
2023-05-19T05:54:39.555Z,3.45
2023-05-19T05:55:39.541Z,3.38
2023-05-19T05:56:39.582Z,3.65
2023-05-19T05:57:39.608Z,3.56
2023-05-19T05:58:39.655Z,3.24
2023-05-19T05:59:39.679Z,3.38
2023-05-19T06:00:39.727Z,3.45
2023-05-19T06:01:39.838Z,3.21
2023-05-19T06:02:39.935Z,3.25
2023-05-19T06:03:39.923Z,3.44
2023-05-19T06:04:39.861Z,3.53
2023-05-19T06:05:39.935Z,3.60
2023-05-19T06:06:39.960Z,3.69
2023-05-19T06:07:39.978Z,3.41
2023-05-19T06:08:40.053Z,3.35
2023-05-19T06:09:40.097Z,3.39
2023-05-19T06:10:40.119Z,3.19
2023-05-19T06:11:40.162Z,3.37
2023-05-19T06:12:40.208Z,3.32
2023-05-19T06:13:40.237Z,3.36
2023-05-19T06:14:40.264Z,3.30
2023-05-19T06:15:40.347Z,3.21
2023-05-19T06:16:40.471Z,3.03
2023-05-19T06:17:40.395Z,2.74
2023-05-19T06:18:40.468Z,3.05
2023-05-19T06:19:40.450Z,3.16
2023-05-19T06:20:40.508Z,3.06
2023-05-19T06:21:40.545Z,3.08
2023-05-19T06:22:40.556Z,2.83
2023-05-19T06:23:40.597Z,2.78
2023-05-19T06:24:40.628Z,2.72
2023-05-19T06:25:40.643Z,2.82
2023-05-19T06:26:40.702Z,2.77
2023-05-19T06:27:40.732Z,2.62
2023-05-19T06:28:40.761Z,2.75
2023-05-19T06:29:40.828Z,2.96
2023-05-19T06:30:40.831Z,3.00
2023-05-19T06:31:40.924Z,3.12
2023-05-19T06:32:40.983Z,3.00
2023-05-19T06:33:40.914Z,3.16
2023-05-19T06:34:40.957Z,3.13
2023-05-19T06:35:41.001Z,2.97
2023-05-19T06:36:41.052Z,2.81
2023-05-19T06:37:41.065Z,2.79
2023-05-19T06:38:41.096Z,2.90
2023-05-19T06:39:41.111Z,2.93
2023-05-19T06:40:41.148Z,2.88
2023-05-19T06:41:41.193Z,2.91
2023-05-19T06:42:41.248Z,2.84
2023-05-19T06:43:41.235Z,2.79
2023-05-19T06:44:41.244Z,2.68
2023-05-19T06:45:41.255Z,2.60
2023-05-19T06:46:41.332Z,2.72
2023-05-19T06:47:41.374Z,2.77
2023-05-19T06:48:41.297Z,2.58
2023-05-19T06:49:41.327Z,2.46
2023-05-19T06:50:41.321Z,2.46
2023-05-19T06:51:41.355Z,2.63
2023-05-19T06:52:41.361Z,2.74
2023-05-19T06:53:41.365Z,2.93
2023-05-19T06:54:41.440Z,2.77
2023-05-19T06:55:54.420Z,2.84
2023-05-19T06:56:42.401Z,2.85
2023-05-19T06:57:41.415Z,2.84
2023-05-19T06:58:41.382Z,2.91
2023-05-19T06:59:41.355Z,2.88
2023-05-19T07:00:41.374Z,2.95
2023-05-19T07:01:41.386Z,3.12
2023-05-19T07:02:41.399Z,3.14
2023-05-19T07:03:41.405Z,2.95
2023-05-19T07:04:41.317Z,2.91
2023-05-19T07:05:41.314Z,2.80
2023-05-19T07:06:41.313Z,3.07
2023-05-19T07:07:41.300Z,2.89
2023-05-19T07:08:41.305Z,2.98
2023-05-19T07:09:41.284Z,2.92
2023-05-19T07:10:41.279Z,2.93
2023-05-19T07:11:41.273Z,2.67
2023-05-19T07:12:41.256Z,2.62
2023-05-19T07:13:41.256Z,2.74
2023-05-19T07:14:41.261Z,2.61
2023-05-19T07:15:41.249Z,2.52
2023-05-19T07:16:41.293Z,2.53
2023-05-19T07:17:41.321Z,2.42
2023-05-19T07:18:41.309Z,2.31
2023-05-19T07:19:41.270Z,2.39
2023-05-19T07:20:41.295Z,2.21
2023-05-19T07:21:41.304Z,2.62
2023-05-19T07:22:41.318Z,2.15
2023-05-19T07:23:41.332Z,2.36
2023-05-19T07:24:41.331Z,2.13
2023-05-19T07:25:41.355Z,2.31
2023-05-19T07:26:41.486Z,2.41
2023-05-19T07:27:41.364Z,2.23
2023-05-19T07:28:41.858Z,2.25
2023-05-19T07:29:41.386Z,2.20
2023-05-19T07:30:41.396Z,2.07
2023-05-19T07:31:41.456Z,1.96
2023-05-19T07:32:41.446Z,1.77
2023-05-19T07:33:41.460Z,1.77
2023-05-19T07:34:41.450Z,1.86
2023-05-19T07:35:41.432Z,1.69
2023-05-19T07:36:41.438Z,1.62
2023-05-19T07:37:41.456Z,1.79
2023-05-19T07:38:41.508Z,1.84
2023-05-19T07:39:41.466Z,1.76
2023-05-19T07:40:41.465Z,1.76
2023-05-19T07:41:41.475Z,1.76
2023-05-19T07:42:41.552Z,1.74
2023-05-19T07:43:41.467Z,1.71
2023-05-19T07:44:41.453Z,1.85
2023-05-19T07:45:41.505Z,1.78
2023-05-19T07:46:41.460Z,1.82
2023-05-19T07:47:41.495Z,1.76
2023-05-19T07:48:41.486Z,1.71
2023-05-19T07:49:41.463Z,1.92
2023-05-19T07:50:41.465Z,1.77
2023-05-19T07:51:41.435Z,1.75
2023-05-19T07:52:41.457Z,1.94
2023-05-19T07:53:41.527Z,1.91
2023-05-19T07:54:41.515Z,1.76
2023-05-19T07:55:41.556Z,1.76
2023-05-19T07:56:41.621Z,1.68
2023-05-19T07:57:41.682Z,1.65
2023-05-19T07:58:41.826Z,1.55
2023-05-19T07:59:41.747Z,1.75
2023-05-19T08:00:41.797Z,1.79
2023-05-19T08:01:41.855Z,1.55
2023-05-19T08:02:41.988Z,1.38
2023-05-19T08:03:42.058Z,2.26
2023-05-19T08:04:42.071Z,1.80
2023-05-19T08:05:42.079Z,2.00
2023-05-19T08:06:42.120Z,2.01
2023-05-19T08:07:42.183Z,1.82
2023-05-19T08:08:42.242Z,1.47
2023-05-19T08:09:42.300Z,1.25
2023-05-19T08:10:42.336Z,1.19
2023-05-19T08:11:42.391Z,1.25
2023-05-19T08:12:42.432Z,1.39
2023-05-19T08:13:42.481Z,1.23
2023-05-19T08:14:42.524Z,1.63
2023-05-19T08:15:42.595Z,1.81
2023-05-19T08:16:42.581Z,2.24
2023-05-19T08:17:42.647Z,2.37
2023-05-19T08:18:42.706Z,2.35
2023-05-19T08:19:42.730Z,2.51
2023-05-19T08:20:42.730Z,2.40
2023-05-19T08:21:42.769Z,2.27
2023-05-19T08:22:42.811Z,2.20
2023-05-19T08:23:42.839Z,2.30
2023-05-19T08:24:42.863Z,2.55
2023-05-19T08:25:42.926Z,2.46
2023-05-19T08:26:42.979Z,2.29
2023-05-19T08:27:43.024Z,2.09
2023-05-19T08:28:43.094Z,1.98
2023-05-19T08:29:43.147Z,1.91
2023-05-19T08:30:43.162Z,1.88
2023-05-19T08:31:43.258Z,1.75
2023-05-19T08:32:43.209Z,1.96
2023-05-19T08:33:43.189Z,1.90
2023-05-19T08:34:43.211Z,1.77
2023-05-19T08:35:43.218Z,1.67
2023-05-19T08:36:43.232Z,2.00
2023-05-19T08:37:43.226Z,1.95
2023-05-19T08:38:43.231Z,1.93
2023-05-19T08:39:43.235Z,2.04
2023-05-19T08:40:43.247Z,1.98
2023-05-19T08:41:43.234Z,1.88
2023-05-19T08:42:43.224Z,1.85
2023-05-19T08:43:43.219Z,1.81
2023-05-19T08:44:43.238Z,2.01
2023-05-19T08:45:43.232Z,1.92
2023-05-19T08:46:43.392Z,2.03
2023-05-19T08:47:43.262Z,1.92
2023-05-19T08:48:43.224Z,1.92
2023-05-19T08:49:43.226Z,2.07
2023-05-19T08:50:43.244Z,2.14
2023-05-19T08:51:43.244Z,2.13
2023-05-19T08:52:44.100Z,2.01
2023-05-19T08:53:43.243Z,2.12
2023-05-19T08:54:43.235Z,2.14
2023-05-19T08:55:43.262Z,2.18
2023-05-19T08:56:43.239Z,2.10
2023-05-19T08:57:43.251Z,2.25
2023-05-19T08:58:43.273Z,2.17
2023-05-19T08:59:43.281Z,2.18
2023-05-19T09:00:43.303Z,2.12
2023-05-19T09:01:43.353Z,2.08
2023-05-19T09:02:50.680Z,2.06
2023-05-19T09:03:44.356Z,2.01
2023-05-19T09:04:43.341Z,1.97
2023-05-19T09:05:43.322Z,1.80
2023-05-19T09:06:43.275Z,1.60
2023-05-19T09:07:43.282Z,1.56
2023-05-19T09:08:43.241Z,1.82
2023-05-19T09:09:43.263Z,1.58
2023-05-19T09:10:43.257Z,1.64
2023-05-19T09:11:43.236Z,1.54
2023-05-19T09:12:43.237Z,1.61
2023-05-19T09:13:43.278Z,1.87
2023-05-19T09:14:43.349Z,2.27
2023-05-19T09:15:43.387Z,2.58
2023-05-19T09:16:43.484Z,3.07
2023-05-19T09:17:43.487Z,2.89
2023-05-19T09:18:43.567Z,2.91
2023-05-19T09:19:43.597Z,3.04
2023-05-19T09:20:43.618Z,2.52
2023-05-19T09:21:44.683Z,2.30
2023-05-19T09:22:43.693Z,2.36
2023-05-19T09:23:43.744Z,2.47
2023-05-19T09:24:43.777Z,2.25
2023-05-19T09:25:43.818Z,2.40
2023-05-19T09:26:43.888Z,2.25
2023-05-19T09:27:43.904Z,2.48
2023-05-19T09:28:43.938Z,2.29
2023-05-19T09:29:43.987Z,2.05
2023-05-19T09:30:44.004Z,2.14
2023-05-19T09:31:44.109Z,2.07
2023-05-19T09:32:44.134Z,1.78
2023-05-19T09:33:45.988Z,1.85
2023-05-19T09:34:44.169Z,2.05
2023-05-19T09:35:44.209Z,1.78
2023-05-19T09:36:44.268Z,1.63
2023-05-19T09:37:44.279Z,1.57
2023-05-19T09:38:44.301Z,1.55
2023-05-19T09:39:44.362Z,1.66
2023-05-19T09:40:44.369Z,1.57
2023-05-19T09:41:44.422Z,1.61
2023-05-19T09:42:44.517Z,1.86
2023-05-19T09:43:44.520Z,2.02
2023-05-19T09:44:44.520Z,1.99
2023-05-19T09:45:44.573Z,1.79
2023-05-19T09:46:44.759Z,1.56
2023-05-19T09:47:44.685Z,1.65
2023-05-19T09:48:44.662Z,1.78
2023-05-19T09:49:44.665Z,1.83
2023-05-19T09:50:44.702Z,1.68
2023-05-19T09:51:44.746Z,1.94
2023-05-19T09:52:44.772Z,1.60
2023-05-19T09:53:44.851Z,1.63
2023-05-19T09:54:44.856Z,1.61
2023-05-19T09:55:44.924Z,1.67
2023-05-19T09:56:44.984Z,2.00
2023-05-19T09:57:45.019Z,1.68
2023-05-19T09:58:45.110Z,1.71
2023-05-19T09:59:45.167Z,1.60
2023-05-19T10:00:45.211Z,1.40
2023-05-19T10:01:45.306Z,1.53
2023-05-19T10:02:45.351Z,1.53
2023-05-19T10:03:45.319Z,1.55
2023-05-19T10:04:45.386Z,1.52
2023-05-19T10:05:45.332Z,1.46
2023-05-19T10:06:45.347Z,1.36
2023-05-19T10:07:45.365Z,1.61
2023-05-19T10:08:45.373Z,1.61
2023-05-19T10:09:45.405Z,1.48
2023-05-19T10:10:45.413Z,1.46
2023-05-19T10:11:45.415Z,1.28
2023-05-19T10:12:45.425Z,1.35
2023-05-19T10:13:45.422Z,1.36
2023-05-19T10:14:45.442Z,1.38
2023-05-19T10:15:57.327Z,1.38
2023-05-19T10:16:46.496Z,1.38
2023-05-19T10:17:45.461Z,1.38
2023-05-19T10:18:45.453Z,1.40
2023-05-19T10:19:45.406Z,1.39
2023-05-19T10:20:45.393Z,1.49
2023-05-19T10:21:45.413Z,1.44
2023-05-19T10:22:45.399Z,1.36
2023-05-19T10:23:45.390Z,1.42
2023-05-19T10:24:45.370Z,1.45
2023-05-19T10:25:45.374Z,1.39
2023-05-19T10:26:45.374Z,1.31
2023-05-19T10:27:45.350Z,1.36
2023-05-19T10:28:45.332Z,1.40
2023-05-19T10:29:45.327Z,1.33
2023-05-19T10:30:45.312Z,1.29
2023-05-19T10:31:45.362Z,1.19
2023-05-19T10:32:45.354Z,1.22
2023-05-19T10:33:45.316Z,1.23
2023-05-19T10:34:45.296Z,1.25
2023-05-19T10:35:47.204Z,1.17
2023-05-19T10:36:45.291Z,1.12
2023-05-19T10:37:45.259Z,1.07
2023-05-19T10:38:45.262Z,1.09
2023-05-19T10:39:45.272Z,1.03
2023-05-19T10:40:45.339Z,1.10
2023-05-19T10:41:46.872Z,1.02
2023-05-19T10:42:45.378Z,1.16
2023-05-19T10:43:45.442Z,1.06
2023-05-19T10:44:45.490Z,1.16
2023-05-19T10:45:45.547Z,1.15
2023-05-19T10:46:45.661Z,1.26
2023-05-19T10:47:45.677Z,1.28
2023-05-19T10:48:45.786Z,1.46
2023-05-19T10:49:45.772Z,1.37
2023-05-19T10:50:45.851Z,1.27
2023-05-19T10:51:45.974Z,1.36
2023-05-19T10:52:45.964Z,1.33
2023-05-19T10:53:46.009Z,1.22
2023-05-19T10:54:46.073Z,1.26
2023-05-19T10:55:46.139Z,1.05
2023-05-19T10:56:46.211Z,1.08
2023-05-19T10:57:46.256Z,1.23
2023-05-19T10:58:46.290Z,1.15
2023-05-19T10:59:46.345Z,1.40
2023-05-19T11:00:46.393Z,1.36
2023-05-19T11:01:46.470Z,1.39
2023-05-19T11:02:46.521Z,1.32
2023-05-19T11:03:46.554Z,1.18
2023-05-19T11:04:48.319Z,1.36
2023-05-19T11:05:46.577Z,1.09
2023-05-19T11:06:46.588Z,1.16
2023-05-19T11:07:46.556Z,1.29
2023-05-19T11:08:46.571Z,1.32
2023-05-19T11:09:46.541Z,1.07
2023-05-19T11:10:46.698Z,1.02
2023-05-19T11:11:46.542Z,1.16
2023-05-19T11:12:46.525Z,1.13
2023-05-19T11:13:46.559Z,1.00
2023-05-19T11:14:46.568Z,1.10
2023-05-19T11:15:46.510Z,1.08
2023-05-19T11:16:46.585Z,1.10
2023-05-19T11:17:46.573Z,0.96
2023-05-19T11:18:46.593Z,1.04
2023-05-19T11:19:46.465Z,1.09
2023-05-19T11:20:46.519Z,0.98
2023-05-19T11:21:46.487Z,0.79
2023-05-19T11:22:46.435Z,0.86
2023-05-19T11:23:47.281Z,0.90
2023-05-19T11:24:46.429Z,0.86
2023-05-19T11:25:46.411Z,0.94
2023-05-19T11:26:46.413Z,0.93
2023-05-19T11:27:46.420Z,0.91
2023-05-19T11:28:46.392Z,1.07
2023-05-19T11:29:46.424Z,0.96
2023-05-19T11:30:46.401Z,1.16
2023-05-19T11:31:46.418Z,1.09
2023-05-19T11:32:46.389Z,1.01
2023-05-19T11:33:46.374Z,1.06
2023-05-19T11:34:46.370Z,1.11
2023-05-19T11:35:46.336Z,1.14
2023-05-19T11:36:46.385Z,1.08
2023-05-19T11:37:46.323Z,1.11
2023-05-19T11:38:46.314Z,1.14
2023-05-19T11:39:46.346Z,1.13
2023-05-19T11:40:46.313Z,1.04
2023-05-19T11:41:46.316Z,1.04
2023-05-19T11:42:46.319Z,1.06
2023-05-19T11:43:46.333Z,1.03
2023-05-19T11:44:46.313Z,1.00
2023-05-19T11:45:46.317Z,1.01
2023-05-19T11:46:46.423Z,1.02
2023-05-19T11:48:01.400Z,1.08
2023-05-19T11:48:47.261Z,1.08
2023-05-19T11:49:46.240Z,1.04
2023-05-19T11:50:46.249Z,1.03
2023-05-19T11:51:46.250Z,1.02
2023-05-19T11:52:46.305Z,0.97
2023-05-19T11:53:46.203Z,0.96
2023-05-19T11:54:46.212Z,0.89
2023-05-19T11:55:46.469Z,1.00
2023-05-19T11:56:46.183Z,0.96
2023-05-19T11:57:56.081Z,0.88
2023-05-19T11:58:47.270Z,0.89
2023-05-19T11:59:46.190Z,0.89
2023-05-19T12:00:46.362Z,0.89
2023-05-19T12:01:46.150Z,0.92
2023-05-19T12:02:46.329Z,0.82
2023-05-19T12:03:46.297Z,0.80
2023-05-19T12:04:46.234Z,0.78
2023-05-19T12:05:47.202Z,0.82
2023-05-19T12:06:46.277Z,0.73
2023-05-19T12:07:46.122Z,0.72
2023-05-19T12:08:46.110Z,0.74
2023-05-19T12:09:46.141Z,0.69
2023-05-19T12:10:46.209Z,0.72
2023-05-19T12:11:46.261Z,0.69
2023-05-19T12:12:46.315Z,0.76
2023-05-19T12:13:46.386Z,0.71
2023-05-19T12:14:46.412Z,0.69
2023-05-19T12:15:46.522Z,0.77
2023-05-19T12:16:46.644Z,0.77
2023-05-19T12:17:46.713Z,0.76
2023-05-19T12:18:46.723Z,0.76
2023-05-19T12:19:46.723Z,0.82
2023-05-19T12:20:46.763Z,0.74
2023-05-19T12:21:46.842Z,0.84
2023-05-19T12:22:46.880Z,1.23
2023-05-19T12:23:46.979Z,1.34
2023-05-19T12:24:47.002Z,1.16
2023-05-19T12:25:47.069Z,1.13
2023-05-19T12:26:47.106Z,1.29
2023-05-19T12:27:47.172Z,1.21
2023-05-19T12:28:47.207Z,1.33
2023-05-19T12:29:47.280Z,1.27
2023-05-19T12:30:47.333Z,1.06
2023-05-19T12:31:47.495Z,0.97
2023-05-19T12:32:47.445Z,1.20
2023-05-19T12:33:47.468Z,1.24
2023-05-19T12:34:47.534Z,1.36
2023-05-19T12:35:47.591Z,1.18
2023-05-19T12:36:47.651Z,0.99
2023-05-19T12:37:47.746Z,1.01
2023-05-19T12:38:47.750Z,0.93
2023-05-19T12:39:47.776Z,1.07
2023-05-19T12:40:47.826Z,1.18
2023-05-19T12:41:47.893Z,1.25
2023-05-19T12:42:47.953Z,1.02
2023-05-19T12:43:47.997Z,1.00
2023-05-19T12:44:48.037Z,1.16
2023-05-19T12:45:48.176Z,1.12
2023-05-19T12:46:48.149Z,1.00
2023-05-19T12:47:48.297Z,0.96
2023-05-19T12:48:48.244Z,0.91
2023-05-19T12:49:48.303Z,0.95
2023-05-19T12:50:48.366Z,0.78
2023-05-19T12:51:48.401Z,0.81
2023-05-19T12:52:48.455Z,0.90
2023-05-19T12:53:48.512Z,0.85
2023-05-19T12:54:48.646Z,0.75
2023-05-19T12:55:48.627Z,0.88
2023-05-19T12:56:48.665Z,1.02
2023-05-19T12:57:50.505Z,0.92
2023-05-19T12:58:48.768Z,0.95
2023-05-19T12:59:48.809Z,1.06
2023-05-19T13:00:48.923Z,1.03
2023-05-19T13:01:48.976Z,0.99
2023-05-19T13:02:49.012Z,1.03
2023-05-19T13:03:49.145Z,1.11
2023-05-19T13:04:49.037Z,0.97
2023-05-19T13:05:49.115Z,1.01
2023-05-19T13:06:49.144Z,0.86
2023-05-19T13:07:49.169Z,0.81
2023-05-19T13:08:49.230Z,0.94
2023-05-19T13:09:49.289Z,1.00
2023-05-19T13:10:49.355Z,1.25
2023-05-19T13:11:49.375Z,1.01
2023-05-19T13:12:49.406Z,1.31
2023-05-19T13:13:49.489Z,1.30
2023-05-19T13:14:49.490Z,1.28
2023-05-19T13:15:49.575Z,1.46
2023-05-19T13:16:49.641Z,1.35
2023-05-19T13:17:49.663Z,1.31
2023-05-19T13:18:49.723Z,1.49